sensor_id;sensor_type;location;lat;lon;timestamp;P1;durP1;ratioP1;P2;durP2;ratioP2
73599;SDS011;61877;48.246;9.220;2023-01-28T00:01:47;29.25;;;12.07;;
73599;SDS011;61877;48.246;9.220;2023-01-28T00:04:14;27.43;;;11.33;;
73599;SDS011;61877;48.246;9.220;2023-01-28T00:06:40;25.40;;;11.05;;
73599;SDS011;61877;48.246;9.220;2023-01-28T00:09:05;30.33;;;12.47;;
73599;SDS011;61877;48.246;9.220;2023-01-28T00:11:31;29.70;;;12.77;;
73599;SDS011;61877;48.246;9.220;2023-01-28T00:13:56;29.13;;;11.53;;
73599;SDS011;61877;48.246;9.220;2023-01-28T00:16:22;27.63;;;11.40;;
73599;SDS011;61877;48.246;9.220;2023-01-28T00:18:47;24.47;;;11.03;;
73599;SDS011;61877;48.246;9.220;2023-01-28T00:21:14;24.80;;;11.10;;
73599;SDS011;61877;48.246;9.220;2023-01-28T00:23:40;24.88;;;11.00;;
73599;SDS011;61877;48.246;9.220;2023-01-28T00:26:07;24.85;;;10.32;;
73599;SDS011;61877;48.246;9.220;2023-01-28T00:28:34;25.13;;;10.95;;
73599;SDS011;61877;48.246;9.220;2023-01-28T00:31:04;27.53;;;10.67;;
73599;SDS011;61877;48.246;9.220;2023-01-28T00:33:30;26.15;;;11.73;;
73599;SDS011;61877;48.246;9.220;2023-01-28T00:35:56;27.30;;;11.60;;
73599;SDS011;61877;48.246;9.220;2023-01-28T00:38:24;23.00;;;9.77;;
73599;SDS011;61877;48.246;9.220;2023-01-28T00:40:49;24.75;;;10.43;;
73599;SDS011;61877;48.246;9.220;2023-01-28T00:43:15;23.40;;;10.37;;
73599;SDS011;61877;48.246;9.220;2023-01-28T00:45:40;24.47;;;9.90;;
73599;SDS011;61877;48.246;9.220;2023-01-28T00:48:05;26.53;;;11.03;;
73599;SDS011;61877;48.246;9.220;2023-01-28T00:50:31;22.77;;;10.50;;
73599;SDS011;61877;48.246;9.220;2023-01-28T00:52:56;23.13;;;10.10;;
73599;SDS011;61877;48.246;9.220;2023-01-28T00:55:23;23.40;;;10.37;;
73599;SDS011;61877;48.246;9.220;2023-01-28T00:57:48;25.00;;;11.07;;
73599;SDS011;61877;48.246;9.220;2023-01-28T01:00:14;24.13;;;10.90;;
73599;SDS011;61877;48.246;9.220;2023-01-28T01:02:40;21.83;;;11.05;;
73599;SDS011;61877;48.246;9.220;2023-01-28T01:05:06;25.27;;;10.17;;
73599;SDS011;61877;48.246;9.220;2023-01-28T01:07:32;24.52;;;11.60;;
73599;SDS011;61877;48.246;9.220;2023-01-28T01:09:58;25.00;;;10.80;;
73599;SDS011;61877;48.246;9.220;2023-01-28T01:12:24;26.17;;;10.18;;
73599;SDS011;61877;48.246;9.220;2023-01-28T01:14:50;25.23;;;11.25;;
73599;SDS011;61877;48.246;9.220;2023-01-28T01:17:15;24.23;;;10.90;;
73599;SDS011;61877;48.246;9.220;2023-01-28T01:19:41;24.90;;;11.27;;
73599;SDS011;61877;48.246;9.220;2023-01-28T01:22:06;22.93;;;10.87;;
73599;SDS011;61877;48.246;9.220;2023-01-28T01:24:31;24.73;;;10.73;;
73599;SDS011;61877;48.246;9.220;2023-01-28T01:26:57;23.48;;;10.27;;
73599;SDS011;61877;48.246;9.220;2023-01-28T01:29:23;25.33;;;10.77;;
73599;SDS011;61877;48.246;9.220;2023-01-28T01:31:49;23.58;;;10.95;;
73599;SDS011;61877;48.246;9.220;2023-01-28T01:34:14;25.33;;;10.27;;
73599;SDS011;61877;48.246;9.220;2023-01-28T01:36:40;23.57;;;10.10;;
73599;SDS011;61877;48.246;9.220;2023-01-28T01:39:05;23.90;;;10.50;;
73599;SDS011;61877;48.246;9.220;2023-01-28T01:41:31;26.67;;;10.90;;
73599;SDS011;61877;48.246;9.220;2023-01-28T01:43:57;25.03;;;11.03;;
73599;SDS011;61877;48.246;9.220;2023-01-28T01:46:26;25.83;;;11.30;;
73599;SDS011;61877;48.246;9.220;2023-01-28T01:48:59;25.63;;;11.20;;
73599;SDS011;61877;48.246;9.220;2023-01-28T01:51:31;24.55;;;10.85;;
73599;SDS011;61877;48.246;9.220;2023-01-28T01:53:58;23.75;;;10.70;;
73599;SDS011;61877;48.246;9.220;2023-01-28T01:56:26;24.57;;;10.60;;
73599;SDS011;61877;48.246;9.220;2023-01-28T01:58:56;27.27;;;11.38;;
73599;SDS011;61877;48.246;9.220;2023-01-28T02:01:23;24.77;;;10.52;;
73599;SDS011;61877;48.246;9.220;2023-01-28T02:03:54;25.40;;;10.98;;
73599;SDS011;61877;48.246;9.220;2023-01-28T02:06:24;24.17;;;9.90;;
73599;SDS011;61877;48.246;9.220;2023-01-28T02:08:52;24.55;;;10.23;;
73599;SDS011;61877;48.246;9.220;2023-01-28T02:11:18;24.90;;;10.90;;
73599;SDS011;61877;48.246;9.220;2023-01-28T02:13:46;23.17;;;10.48;;
73599;SDS011;61877;48.246;9.220;2023-01-28T02:16:15;22.38;;;10.27;;
73599;SDS011;61877;48.246;9.220;2023-01-28T02:18:40;23.30;;;10.10;;
73599;SDS011;61877;48.246;9.220;2023-01-28T02:21:13;25.48;;;10.18;;
73599;SDS011;61877;48.246;9.220;2023-01-28T02:24:12;23.13;;;9.80;;
73599;SDS011;61877;48.246;9.220;2023-01-28T02:26:59;24.40;;;10.80;;
73599;SDS011;61877;48.246;9.220;2023-01-28T02:29:45;22.83;;;10.50;;
73599;SDS011;61877;48.246;9.220;2023-01-28T02:32:20;20.83;;;9.93;;
73599;SDS011;61877;48.246;9.220;2023-01-28T02:34:50;22.65;;;10.50;;
73599;SDS011;61877;48.246;9.220;2023-01-28T02:37:21;21.77;;;10.07;;
73599;SDS011;61877;48.246;9.220;2023-01-28T02:39:50;20.23;;;10.00;;
73599;SDS011;61877;48.246;9.220;2023-01-28T02:42:21;27.92;;;11.48;;
73599;SDS011;61877;48.246;9.220;2023-01-28T02:44:52;24.38;;;10.77;;
73599;SDS011;61877;48.246;9.220;2023-01-28T02:47:17;21.88;;;9.70;;
73599;SDS011;61877;48.246;9.220;2023-01-28T02:49:44;22.27;;;9.93;;
73599;SDS011;61877;48.246;9.220;2023-01-28T02:52:17;22.15;;;10.68;;
73599;SDS011;61877;48.246;9.220;2023-01-28T02:54:51;22.75;;;10.32;;
73599;SDS011;61877;48.246;9.220;2023-01-28T02:57:26;21.33;;;9.57;;
73599;SDS011;61877;48.246;9.220;2023-01-28T03:00:02;21.77;;;10.10;;
73599;SDS011;61877;48.246;9.220;2023-01-28T03:02:34;21.70;;;10.05;;
73599;SDS011;61877;48.246;9.220;2023-01-28T03:05:06;19.17;;;9.23;;
73599;SDS011;61877;48.246;9.220;2023-01-28T03:07:38;21.83;;;9.60;;
73599;SDS011;61877;48.246;9.220;2023-01-28T03:10:05;21.73;;;10.37;;
73599;SDS011;61877;48.246;9.220;2023-01-28T03:12:34;21.67;;;9.60;;
73599;SDS011;61877;48.246;9.220;2023-01-28T03:15:03;21.58;;;10.00;;
73599;SDS011;61877;48.246;9.220;2023-01-28T03:17:33;21.13;;;9.57;;
73599;SDS011;61877;48.246;9.220;2023-01-28T03:20:05;22.83;;;9.88;;
73599;SDS011;61877;48.246;9.220;2023-01-28T03:22:31;20.03;;;9.43;;
73599;SDS011;61877;48.246;9.220;2023-01-28T03:25:01;19.75;;;9.35;;
73599;SDS011;61877;48.246;9.220;2023-01-28T03:27:27;23.08;;;10.18;;
73599;SDS011;61877;48.246;9.220;2023-01-28T03:29:58;20.15;;;9.18;;
73599;SDS011;61877;48.246;9.220;2023-01-28T03:32:29;24.30;;;9.80;;
73599;SDS011;61877;48.246;9.220;2023-01-28T03:34:56;21.02;;;9.70;;
73599;SDS011;61877;48.246;9.220;2023-01-28T03:37:22;22.73;;;9.68;;
73599;SDS011;61877;48.246;9.220;2023-01-28T03:39:48;20.70;;;9.65;;
73599;SDS011;61877;48.246;9.220;2023-01-28T03:42:14;22.10;;;10.33;;
73599;SDS011;61877;48.246;9.220;2023-01-28T03:44:40;20.75;;;9.73;;
73599;SDS011;61877;48.246;9.220;2023-01-28T03:47:05;20.20;;;9.13;;
73599;SDS011;61877;48.246;9.220;2023-01-28T03:49:32;19.63;;;9.00;;
73599;SDS011;61877;48.246;9.220;2023-01-28T03:51:57;19.35;;;9.32;;
73599;SDS011;61877;48.246;9.220;2023-01-28T03:54:22;19.83;;;9.10;;
73599;SDS011;61877;48.246;9.220;2023-01-28T03:56:48;22.10;;;9.37;;
73599;SDS011;61877;48.246;9.220;2023-01-28T03:59:13;18.80;;;8.67;;
73599;SDS011;61877;48.246;9.220;2023-01-28T04:01:39;16.57;;;8.00;;
73599;SDS011;61877;48.246;9.220;2023-01-28T04:04:04;19.17;;;8.60;;
73599;SDS011;61877;48.246;9.220;2023-01-28T04:06:31;18.23;;;8.73;;
73599;SDS011;61877;48.246;9.220;2023-01-28T04:08:56;17.63;;;8.13;;
73599;SDS011;61877;48.246;9.220;2023-01-28T04:11:22;20.30;;;8.25;;
73599;SDS011;61877;48.246;9.220;2023-01-28T04:13:47;17.77;;;8.33;;
73599;SDS011;61877;48.246;9.220;2023-01-28T04:16:13;17.13;;;7.93;;
73599;SDS011;61877;48.246;9.220;2023-01-28T04:18:40;17.42;;;7.82;;
73599;SDS011;61877;48.246;9.220;2023-01-28T04:21:05;16.30;;;7.50;;
73599;SDS011;61877;48.246;9.220;2023-01-28T04:23:32;15.00;;;7.70;;
73599;SDS011;61877;48.246;9.220;2023-01-28T04:25:57;16.23;;;7.10;;
73599;SDS011;61877;48.246;9.220;2023-01-28T04:28:23;15.07;;;7.57;;
73599;SDS011;61877;48.246;9.220;2023-01-28T04:30:48;15.23;;;7.60;;
73599;SDS011;61877;48.246;9.220;2023-01-28T04:33:14;13.40;;;6.67;;
73599;SDS011;61877;48.246;9.220;2023-01-28T04:35:39;12.97;;;6.57;;
73599;SDS011;61877;48.246;9.220;2023-01-28T04:38:04;12.63;;;6.23;;
73599;SDS011;61877;48.246;9.220;2023-01-28T04:40:31;12.73;;;5.95;;
73599;SDS011;61877;48.246;9.220;2023-01-28T04:42:57;11.80;;;6.00;;
73599;SDS011;61877;48.246;9.220;2023-01-28T04:45:23;12.18;;;6.18;;
73599;SDS011;61877;48.246;9.220;2023-01-28T04:47:48;12.10;;;6.10;;
73599;SDS011;61877;48.246;9.220;2023-01-28T04:50:14;13.15;;;5.70;;
73599;SDS011;61877;48.246;9.220;2023-01-28T04:52:40;14.43;;;6.00;;
73599;SDS011;61877;48.246;9.220;2023-01-28T04:55:06;12.93;;;6.28;;
73599;SDS011;61877;48.246;9.220;2023-01-28T04:57:34;12.17;;;6.37;;
73599;SDS011;61877;48.246;9.220;2023-01-28T05:00:00;11.10;;;5.88;;
73599;SDS011;61877;48.246;9.220;2023-01-28T05:02:25;12.40;;;5.47;;
73599;SDS011;61877;48.246;9.220;2023-01-28T05:04:50;11.73;;;5.68;;
73599;SDS011;61877;48.246;9.220;2023-01-28T05:07:16;12.37;;;5.80;;
73599;SDS011;61877;48.246;9.220;2023-01-28T05:09:41;13.13;;;6.80;;
73599;SDS011;61877;48.246;9.220;2023-01-28T05:12:07;10.53;;;5.13;;
73599;SDS011;61877;48.246;9.220;2023-01-28T05:14:33;11.40;;;5.63;;
73599;SDS011;61877;48.246;9.220;2023-01-28T05:16:59;10.40;;;5.10;;
73599;SDS011;61877;48.246;9.220;2023-01-28T05:19:24;11.13;;;5.67;;
73599;SDS011;61877;48.246;9.220;2023-01-28T05:21:49;10.68;;;5.18;;
73599;SDS011;61877;48.246;9.220;2023-01-28T05:24:15;10.50;;;5.27;;
73599;SDS011;61877;48.246;9.220;2023-01-28T05:26:40;11.27;;;5.37;;
73599;SDS011;61877;48.246;9.220;2023-01-28T05:29:06;11.77;;;5.47;;
73599;SDS011;61877;48.246;9.220;2023-01-28T05:31:33;11.00;;;5.40;;
73599;SDS011;61877;48.246;9.220;2023-01-28T05:33:58;11.02;;;5.07;;
73599;SDS011;61877;48.246;9.220;2023-01-28T05:36:24;11.50;;;5.13;;
73599;SDS011;61877;48.246;9.220;2023-01-28T05:38:49;11.43;;;5.97;;
73599;SDS011;61877;48.246;9.220;2023-01-28T05:41:15;11.60;;;6.07;;
73599;SDS011;61877;48.246;9.220;2023-01-28T05:43:40;11.20;;;5.60;;
73599;SDS011;61877;48.246;9.220;2023-01-28T05:46:05;12.10;;;5.97;;
73599;SDS011;61877;48.246;9.220;2023-01-28T05:48:32;12.30;;;6.17;;
73599;SDS011;61877;48.246;9.220;2023-01-28T05:50:58;11.65;;;5.82;;
73599;SDS011;61877;48.246;9.220;2023-01-28T05:53:23;12.80;;;6.70;;
73599;SDS011;61877;48.246;9.220;2023-01-28T05:55:49;12.20;;;6.40;;
73599;SDS011;61877;48.246;9.220;2023-01-28T05:58:15;11.07;;;5.50;;
73599;SDS011;61877;48.246;9.220;2023-01-28T06:00:40;11.18;;;5.85;;
73599;SDS011;61877;48.246;9.220;2023-01-28T06:03:06;11.20;;;5.30;;
73599;SDS011;61877;48.246;9.220;2023-01-28T06:05:33;12.03;;;5.80;;
73599;SDS011;61877;48.246;9.220;2023-01-28T06:07:58;10.50;;;5.60;;
73599;SDS011;61877;48.246;9.220;2023-01-28T06:10:24;12.20;;;5.83;;
73599;SDS011;61877;48.246;9.220;2023-01-28T06:12:49;12.43;;;5.90;;
73599;SDS011;61877;48.246;9.220;2023-01-28T06:15:14;11.98;;;5.88;;
73599;SDS011;61877;48.246;9.220;2023-01-28T06:17:40;13.40;;;6.03;;
73599;SDS011;61877;48.246;9.220;2023-01-28T06:20:05;11.63;;;6.23;;
73599;SDS011;61877;48.246;9.220;2023-01-28T06:22:33;12.45;;;6.22;;
73599;SDS011;61877;48.246;9.220;2023-01-28T06:24:58;14.18;;;6.43;;
73599;SDS011;61877;48.246;9.220;2023-01-28T06:27:23;12.90;;;6.60;;
73599;SDS011;61877;48.246;9.220;2023-01-28T06:29:49;12.67;;;6.50;;
73599;SDS011;61877;48.246;9.220;2023-01-28T06:32:14;12.20;;;6.50;;
73599;SDS011;61877;48.246;9.220;2023-01-28T06:34:40;12.73;;;6.03;;
73599;SDS011;61877;48.246;9.220;2023-01-28T06:37:05;13.77;;;6.10;;
73599;SDS011;61877;48.246;9.220;2023-01-28T06:39:32;12.13;;;6.10;;
73599;SDS011;61877;48.246;9.220;2023-01-28T06:41:57;13.13;;;6.40;;
73599;SDS011;61877;48.246;9.220;2023-01-28T06:44:23;13.80;;;6.57;;
73599;SDS011;61877;48.246;9.220;2023-01-28T06:46:48;12.48;;;5.43;;
73599;SDS011;61877;48.246;9.220;2023-01-28T06:49:14;12.13;;;5.97;;
73599;SDS011;61877;48.246;9.220;2023-01-28T06:51:39;12.70;;;6.13;;
73599;SDS011;61877;48.246;9.220;2023-01-28T06:54:05;12.90;;;5.90;;
73599;SDS011;61877;48.246;9.220;2023-01-28T06:58:58;11.40;;;6.10;;
73599;SDS011;61877;48.246;9.220;2023-01-28T07:01:24;12.80;;;6.20;;
73599;SDS011;61877;48.246;9.220;2023-01-28T07:03:49;11.93;;;6.10;;
73599;SDS011;61877;48.246;9.220;2023-01-28T07:06:14;13.07;;;6.63;;
73599;SDS011;61877;48.246;9.220;2023-01-28T07:08:40;13.03;;;6.23;;
73599;SDS011;61877;48.246;9.220;2023-01-28T07:11:05;14.13;;;6.10;;
73599;SDS011;61877;48.246;9.220;2023-01-28T07:13:33;12.32;;;6.38;;
73599;SDS011;61877;48.246;9.220;2023-01-28T07:15:59;13.35;;;6.38;;
73599;SDS011;61877;48.246;9.220;2023-01-28T07:18:24;12.93;;;6.33;;
73599;SDS011;61877;48.246;9.220;2023-01-28T07:20:50;13.27;;;5.95;;
73599;SDS011;61877;48.246;9.220;2023-01-28T07:23:15;13.53;;;6.77;;
73599;SDS011;61877;48.246;9.220;2023-01-28T07:25:41;12.57;;;6.30;;
73599;SDS011;61877;48.246;9.220;2023-01-28T07:28:06;11.83;;;5.70;;
73599;SDS011;61877;48.246;9.220;2023-01-28T07:30:33;11.80;;;5.80;;
73599;SDS011;61877;48.246;9.220;2023-01-28T07:32:58;11.80;;;5.63;;
73599;SDS011;61877;48.246;9.220;2023-01-28T07:35:24;13.20;;;6.40;;
73599;SDS011;61877;48.246;9.220;2023-01-28T07:37:53;12.75;;;6.20;;
73599;SDS011;61877;48.246;9.220;2023-01-28T07:40:20;12.53;;;6.43;;
73599;SDS011;61877;48.246;9.220;2023-01-28T07:42:46;11.77;;;5.93;;
73599;SDS011;61877;48.246;9.220;2023-01-28T07:45:11;12.13;;;6.60;;
73599;SDS011;61877;48.246;9.220;2023-01-28T07:47:38;12.68;;;6.30;;
73599;SDS011;61877;48.246;9.220;2023-01-28T07:50:04;12.90;;;6.47;;
73599;SDS011;61877;48.246;9.220;2023-01-28T07:52:29;12.40;;;6.33;;
73599;SDS011;61877;48.246;9.220;2023-01-28T07:54:55;12.20;;;6.30;;
73599;SDS011;61877;48.246;9.220;2023-01-28T07:57:20;13.13;;;6.37;;
73599;SDS011;61877;48.246;9.220;2023-01-28T07:59:46;13.77;;;6.67;;
73599;SDS011;61877;48.246;9.220;2023-01-28T08:02:11;11.70;;;5.73;;
73599;SDS011;61877;48.246;9.220;2023-01-28T08:04:38;12.95;;;5.95;;
73599;SDS011;61877;48.246;9.220;2023-01-28T08:07:04;12.43;;;6.00;;
73599;SDS011;61877;48.246;9.220;2023-01-28T08:09:29;12.73;;;6.32;;
73599;SDS011;61877;48.246;9.220;2023-01-28T08:11:54;11.97;;;5.73;;
73599;SDS011;61877;48.246;9.220;2023-01-28T08:14:20;12.83;;;6.10;;
73599;SDS011;61877;48.246;9.220;2023-01-28T08:16:45;12.63;;;6.17;;
73599;SDS011;61877;48.246;9.220;2023-01-28T08:19:11;13.73;;;6.63;;
73599;SDS011;61877;48.246;9.220;2023-01-28T08:21:37;14.27;;;7.07;;
73599;SDS011;61877;48.246;9.220;2023-01-28T08:24:03;14.95;;;7.40;;
73599;SDS011;61877;48.246;9.220;2023-01-28T08:26:29;14.53;;;6.67;;
73599;SDS011;61877;48.246;9.220;2023-01-28T08:28:56;14.82;;;7.45;;
73599;SDS011;61877;48.246;9.220;2023-01-28T08:31:21;13.50;;;6.90;;
73599;SDS011;61877;48.246;9.220;2023-01-28T08:33:52;14.53;;;7.43;;
73599;SDS011;61877;48.246;9.220;2023-01-28T08:36:18;16.00;;;7.60;;
73599;SDS011;61877;48.246;9.220;2023-01-28T08:38:45;14.23;;;7.50;;
73599;SDS011;61877;48.246;9.220;2023-01-28T08:41:10;14.98;;;7.10;;
73599;SDS011;61877;48.246;9.220;2023-01-28T08:43:35;14.17;;;6.93;;
73599;SDS011;61877;48.246;9.220;2023-01-28T08:46:01;13.70;;;6.53;;
73599;SDS011;61877;48.246;9.220;2023-01-28T08:48:29;16.05;;;8.07;;
73599;SDS011;61877;48.246;9.220;2023-01-28T08:50:56;14.80;;;6.80;;
73599;SDS011;61877;48.246;9.220;2023-01-28T08:53:22;14.00;;;7.05;;
73599;SDS011;61877;48.246;9.220;2023-01-28T08:55:49;13.67;;;6.33;;
73599;SDS011;61877;48.246;9.220;2023-01-28T08:58:16;13.63;;;6.90;;
73599;SDS011;61877;48.246;9.220;2023-01-28T09:00:42;13.63;;;6.60;;
73599;SDS011;61877;48.246;9.220;2023-01-28T09:03:08;14.32;;;7.10;;
73599;SDS011;61877;48.246;9.220;2023-01-28T09:05:37;13.80;;;6.60;;
73599;SDS011;61877;48.246;9.220;2023-01-28T09:08:03;13.27;;;7.07;;
73599;SDS011;61877;48.246;9.220;2023-01-28T09:10:30;13.18;;;6.55;;
73599;SDS011;61877;48.246;9.220;2023-01-28T09:12:57;15.33;;;7.20;;
73599;SDS011;61877;48.246;9.220;2023-01-28T09:15:23;15.48;;;8.25;;
73599;SDS011;61877;48.246;9.220;2023-01-28T09:17:48;13.03;;;6.67;;
73599;SDS011;61877;48.246;9.220;2023-01-28T09:20:15;15.85;;;7.60;;
73599;SDS011;61877;48.246;9.220;2023-01-28T09:22:41;15.48;;;7.00;;
73599;SDS011;61877;48.246;9.220;2023-01-28T09:25:06;13.93;;;6.63;;
73599;SDS011;61877;48.246;9.220;2023-01-28T09:27:32;16.67;;;8.18;;
73599;SDS011;61877;48.246;9.220;2023-01-28T09:29:59;15.50;;;7.10;;
73599;SDS011;61877;48.246;9.220;2023-01-28T09:32:25;14.90;;;7.95;;
73599;SDS011;61877;48.246;9.220;2023-01-28T09:34:50;15.87;;;7.10;;
73599;SDS011;61877;48.246;9.220;2023-01-28T09:37:15;17.02;;;7.93;;
73599;SDS011;61877;48.246;9.220;2023-01-28T09:39:41;16.40;;;7.87;;
73599;SDS011;61877;48.246;9.220;2023-01-28T09:42:11;16.67;;;8.10;;
73599;SDS011;61877;48.246;9.220;2023-01-28T09:44:57;15.73;;;7.40;;
73599;SDS011;61877;48.246;9.220;2023-01-28T09:47:32;17.17;;;7.88;;
73599;SDS011;61877;48.246;9.220;2023-01-28T09:50:02;15.50;;;6.70;;
73599;SDS011;61877;48.246;9.220;2023-01-28T09:52:32;15.50;;;7.00;;
73599;SDS011;61877;48.246;9.220;2023-01-28T09:55:00;15.45;;;6.93;;
73599;SDS011;61877;48.246;9.220;2023-01-28T09:57:29;17.70;;;7.88;;
73599;SDS011;61877;48.246;9.220;2023-01-28T10:00:05;17.10;;;8.10;;
73599;SDS011;61877;48.246;9.220;2023-01-28T10:02:40;17.07;;;7.33;;
73599;SDS011;61877;48.246;9.220;2023-01-28T10:05:21;16.58;;;7.30;;
73599;SDS011;61877;48.246;9.220;2023-01-28T10:07:56;18.58;;;8.32;;
73599;SDS011;61877;48.246;9.220;2023-01-28T10:10:31;16.73;;;7.50;;
73599;SDS011;61877;48.246;9.220;2023-01-28T10:13:08;17.20;;;7.63;;
73599;SDS011;61877;48.246;9.220;2023-01-28T10:15:47;16.00;;;7.80;;
73599;SDS011;61877;48.246;9.220;2023-01-28T10:18:19;18.50;;;8.20;;
73599;SDS011;61877;48.246;9.220;2023-01-28T10:20:51;17.02;;;7.38;;
73599;SDS011;61877;48.246;9.220;2023-01-28T10:23:20;15.82;;;7.15;;
73599;SDS011;61877;48.246;9.220;2023-01-28T10:25:49;15.77;;;7.50;;
73599;SDS011;61877;48.246;9.220;2023-01-28T10:28:17;15.97;;;7.77;;
73599;SDS011;61877;48.246;9.220;2023-01-28T10:30:44;14.45;;;7.18;;
73599;SDS011;61877;48.246;9.220;2023-01-28T10:33:15;18.83;;;8.83;;
73599;SDS011;61877;48.246;9.220;2023-01-28T10:35:43;16.17;;;7.97;;
73599;SDS011;61877;48.246;9.220;2023-01-28T10:38:09;15.68;;;7.53;;
73599;SDS011;61877;48.246;9.220;2023-01-28T10:40:39;16.40;;;8.37;;
73599;SDS011;61877;48.246;9.220;2023-01-28T10:43:08;16.25;;;7.88;;
73599;SDS011;61877;48.246;9.220;2023-01-28T10:45:35;15.77;;;7.75;;
73599;SDS011;61877;48.246;9.220;2023-01-28T10:48:06;16.45;;;8.45;;
73599;SDS011;61877;48.246;9.220;2023-01-28T10:50:48;17.27;;;8.20;;
73599;SDS011;61877;48.246;9.220;2023-01-28T10:53:14;17.48;;;8.63;;
73599;SDS011;61877;48.246;9.220;2023-01-28T10:55:44;17.23;;;7.90;;
73599;SDS011;61877;48.246;9.220;2023-01-28T10:58:16;18.37;;;8.73;;
73599;SDS011;61877;48.246;9.220;2023-01-28T11:00:44;18.02;;;8.68;;
73599;SDS011;61877;48.246;9.220;2023-01-28T11:03:15;17.58;;;8.68;;
73599;SDS011;61877;48.246;9.220;2023-01-28T11:05:48;17.00;;;8.68;;
73599;SDS011;61877;48.246;9.220;2023-01-28T11:08:15;18.05;;;8.60;;
73599;SDS011;61877;48.246;9.220;2023-01-28T11:10:41;19.27;;;9.30;;
73599;SDS011;61877;48.246;9.220;2023-01-28T11:13:13;17.85;;;8.77;;
73599;SDS011;61877;48.246;9.220;2023-01-28T11:15:44;16.13;;;7.65;;
73599;SDS011;61877;48.246;9.220;2023-01-28T11:18:14;18.25;;;8.27;;
73599;SDS011;61877;48.246;9.220;2023-01-28T11:20:49;16.17;;;7.35;;
73599;SDS011;61877;48.246;9.220;2023-01-28T11:23:17;15.63;;;7.23;;
73599;SDS011;61877;48.246;9.220;2023-01-28T11:25:46;15.40;;;7.18;;
73599;SDS011;61877;48.246;9.220;2023-01-28T11:28:14;14.40;;;6.57;;
73599;SDS011;61877;48.246;9.220;2023-01-28T11:30:43;16.63;;;7.60;;
73599;SDS011;61877;48.246;9.220;2023-01-28T11:33:16;15.13;;;7.43;;
73599;SDS011;61877;48.246;9.220;2023-01-28T11:35:52;14.13;;;6.45;;
73599;SDS011;61877;48.246;9.220;2023-01-28T11:38:19;15.98;;;7.55;;
73599;SDS011;61877;48.246;9.220;2023-01-28T11:40:49;15.33;;;7.10;;
73599;SDS011;61877;48.246;9.220;2023-01-28T11:43:14;14.40;;;7.03;;
73599;SDS011;61877;48.246;9.220;2023-01-28T11:45:41;14.57;;;7.23;;
73599;SDS011;61877;48.246;9.220;2023-01-28T11:48:17;16.13;;;6.95;;
73599;SDS011;61877;48.246;9.220;2023-01-28T11:50:57;13.70;;;6.70;;
73599;SDS011;61877;48.246;9.220;2023-01-28T11:53:42;15.50;;;7.00;;
73599;SDS011;61877;48.246;9.220;2023-01-28T11:56:31;14.43;;;7.30;;
73599;SDS011;61877;48.246;9.220;2023-01-28T11:59:13;15.60;;;7.07;;
73599;SDS011;61877;48.246;9.220;2023-01-28T12:02:03;15.57;;;7.55;;
73599;SDS011;61877;48.246;9.220;2023-01-28T12:04:49;14.90;;;6.97;;
73599;SDS011;61877;48.246;9.220;2023-01-28T12:07:32;12.98;;;6.65;;
73599;SDS011;61877;48.246;9.220;2023-01-28T12:10:08;12.20;;;5.75;;
73599;SDS011;61877;48.246;9.220;2023-01-28T12:12:48;13.33;;;6.07;;
73599;SDS011;61877;48.246;9.220;2023-01-28T12:15:39;13.85;;;6.75;;
73599;SDS011;61877;48.246;9.220;2023-01-28T12:18:22;13.55;;;6.47;;
73599;SDS011;61877;48.246;9.220;2023-01-28T12:21:00;13.90;;;6.50;;
73599;SDS011;61877;48.246;9.220;2023-01-28T12:23:40;13.25;;;6.70;;
73599;SDS011;61877;48.246;9.220;2023-01-28T12:26:15;12.77;;;6.60;;
73599;SDS011;61877;48.246;9.220;2023-01-28T12:28:51;12.98;;;6.32;;
73599;SDS011;61877;48.246;9.220;2023-01-28T12:31:42;13.90;;;6.72;;
73599;SDS011;61877;48.246;9.220;2023-01-28T12:37:23;14.07;;;6.63;;
73599;SDS011;61877;48.246;9.220;2023-01-28T12:40:02;14.37;;;6.57;;
73599;SDS011;61877;48.246;9.220;2023-01-28T12:42:37;14.43;;;6.88;;
73599;SDS011;61877;48.246;9.220;2023-01-28T12:45:11;14.30;;;6.53;;
73599;SDS011;61877;48.246;9.220;2023-01-28T12:47:40;13.13;;;6.22;;
73599;SDS011;61877;48.246;9.220;2023-01-28T12:50:12;13.07;;;6.43;;
73599;SDS011;61877;48.246;9.220;2023-01-28T12:52:42;14.13;;;6.63;;
73599;SDS011;61877;48.246;9.220;2023-01-28T12:55:13;12.30;;;6.30;;
73599;SDS011;61877;48.246;9.220;2023-01-28T12:57:42;12.73;;;5.85;;
73599;SDS011;61877;48.246;9.220;2023-01-28T13:00:14;11.40;;;5.50;;
73599;SDS011;61877;48.246;9.220;2023-01-28T13:02:49;12.07;;;6.07;;
73599;SDS011;61877;48.246;9.220;2023-01-28T13:05:21;11.23;;;5.27;;
73599;SDS011;61877;48.246;9.220;2023-01-28T13:07:53;12.27;;;5.95;;
73599;SDS011;61877;48.246;9.220;2023-01-28T13:10:26;12.95;;;5.88;;
73599;SDS011;61877;48.246;9.220;2023-01-28T13:12:53;13.48;;;6.53;;
73599;SDS011;61877;48.246;9.220;2023-01-28T13:15:20;12.57;;;6.50;;
73599;SDS011;61877;48.246;9.220;2023-01-28T13:17:53;12.57;;;6.03;;
73599;SDS011;61877;48.246;9.220;2023-01-28T13:20:28;11.70;;;5.63;;
73599;SDS011;61877;48.246;9.220;2023-01-28T13:22:59;12.10;;;5.90;;
73599;SDS011;61877;48.246;9.220;2023-01-28T13:25:26;12.57;;;5.97;;
73599;SDS011;61877;48.246;9.220;2023-01-28T13:27:55;13.32;;;6.63;;
73599;SDS011;61877;48.246;9.220;2023-01-28T13:30:23;12.20;;;6.20;;
73599;SDS011;61877;48.246;9.220;2023-01-28T13:32:55;12.15;;;5.57;;
73599;SDS011;61877;48.246;9.220;2023-01-28T13:35:32;11.70;;;5.70;;
73599;SDS011;61877;48.246;9.220;2023-01-28T13:38:04;11.07;;;4.93;;
73599;SDS011;61877;48.246;9.220;2023-01-28T13:40:33;11.52;;;5.57;;
73599;SDS011;61877;48.246;9.220;2023-01-28T13:43:01;11.63;;;5.63;;
73599;SDS011;61877;48.246;9.220;2023-01-28T13:45:28;12.65;;;5.85;;
73599;SDS011;61877;48.246;9.220;2023-01-28T13:47:56;11.05;;;5.22;;
73599;SDS011;61877;48.246;9.220;2023-01-28T13:50:28;14.52;;;6.85;;
73599;SDS011;61877;48.246;9.220;2023-01-28T13:53:01;13.63;;;6.10;;
73599;SDS011;61877;48.246;9.220;2023-01-28T13:55:30;13.30;;;6.43;;
73599;SDS011;61877;48.246;9.220;2023-01-28T14:04:14;12.60;;;6.32;;
73599;SDS011;61877;48.246;9.220;2023-01-28T14:12:52;13.80;;;6.35;;
73599;SDS011;61877;48.246;9.220;2023-01-28T14:18:54;13.48;;;6.20;;
73599;SDS011;61877;48.246;9.220;2023-01-28T14:21:24;14.15;;;6.78;;
73599;SDS011;61877;48.246;9.220;2023-01-28T14:23:51;15.70;;;7.53;;
73599;SDS011;61877;48.246;9.220;2023-01-28T14:26:22;15.07;;;6.93;;
73599;SDS011;61877;48.246;9.220;2023-01-28T14:28:58;15.18;;;7.18;;
73599;SDS011;61877;48.246;9.220;2023-01-28T14:31:30;15.90;;;7.20;;
73599;SDS011;61877;48.246;9.220;2023-01-28T14:34:04;16.60;;;7.00;;
73599;SDS011;61877;48.246;9.220;2023-01-28T14:36:35;15.87;;;7.50;;
73599;SDS011;61877;48.246;9.220;2023-01-28T14:39:02;15.57;;;7.30;;
73599;SDS011;61877;48.246;9.220;2023-01-28T14:41:28;15.77;;;8.10;;
73599;SDS011;61877;48.246;9.220;2023-01-28T14:43:54;17.27;;;8.20;;
73599;SDS011;61877;48.246;9.220;2023-01-28T14:46:26;18.27;;;8.70;;
73599;SDS011;61877;48.246;9.220;2023-01-28T14:49:04;17.00;;;8.38;;
73599;SDS011;61877;48.246;9.220;2023-01-28T14:51:43;18.83;;;8.80;;
73599;SDS011;61877;48.246;9.220;2023-01-28T14:54:22;15.90;;;8.18;;
73599;SDS011;61877;48.246;9.220;2023-01-28T14:57:06;15.98;;;8.40;;
73599;SDS011;61877;48.246;9.220;2023-01-28T14:59:45;17.83;;;8.32;;
73599;SDS011;61877;48.246;9.220;2023-01-28T15:02:17;17.02;;;8.57;;